Alexandria, New York
Current Conditions -  °F | °C
As of 2:38 PM on Thursday 27 Nov 2014 (Local Time) from KGTB Reporting Station
Light Snow Light Snow  
Wind Chill: 27°   Ceiling: 1200
Heat Index: 27°   Visibility: 5mi
Dew Point: 23°   Wind: 3mph
Humidity: 86%   Direction: 40°NE
Pressure: 30.01"   Gusts: NA
Location:  44.3057°N, 75.9374°W
Report Text: KGTB 271938Z AUTO 04003KT 5SM -SN BKN012 OVC050 M03/M05 A3001 RMK AO2 CIG 012V050 BKN V SCT
Loading
Personal Weather Stations






























Interactive Weather Map New forecast layout! Learn more

10-Day Weather Forecast

Advertisements
Track Severe Weather on mobile